Tiempo atmosférico en la estación meteorológica de Sopeira, Huesca (760 m.)



Fecha
DESCASC
Temp. máxima en grados centígrados (hora)
DESCASC
Temp. mínima en grados centígrados (hora)
DESCASC
Temp. media en grados centígrados
DESCASC
Racha de viento máxima en m/sg (hora)
DESCASC
Velocidad máxima media en intervalos de 10 minutos(hora)
DESCASC
Precipitaciones diarias en mm
DESCASC
Precipitaciones de 00:00 a 06:00 en mm
DESCASC
Precipitaciones de 06:00 a 12:00 en mm
DESCASC
Precipitaciones de 12:00 a 18:00 en mm
DESCASC
Precipitaciones de 18:00 a 24:00 en mm
DESCASC
23-06-2019 32 (15:30) 14.4 (06:10) 23.2 13.89 (06:50) 10.28 (06:20) 0 0 0 0 0
22-06-2019 27.8 (17:30) 11.6 (07:20) 19.7 12.22 (06:30) 9.17 (07:30) 0 0 0 0 0
21-06-2019 24 (13:50) 14.1 (23:59) 19.1 10.83 (23:59) 8.33 (23:59) 0.8 0 0 0 0.8
20-06-2019 27 (16:00) 15.3 (00:00) 21.2 12.5 (05:30) 8.89 (05:20) 3 0 0 0 3
19-06-2019 -- (--) -- (--) -- -- (--) -- (--) -- -- -- -- 0
18-06-2019 -- (--) -- (--) -- -- (--) -- (--) -- 0 0 0 --
17-06-2019 30.8 (16:20) 11.5 (00:00) 21.1 14.44 (07:30) 10.28 (07:00) 0 0 0 0 0
16-06-2019 27.1 (17:10) 9.5 (00:00) 18.3 11.94 (06:20) 8.06 (06:00) 0 0 0 0 0
15-06-2019 25.2 (16:00) 13 (00:00) 19.1 11.11 (02:20) 8.06 (01:50) 0 0 0 0 0
14-06-2019 25.8 (13:50) 12.9 (00:00) 19.3 15.56 (06:30) 10.28 (06:20) 0 0 0 0 0
13-06-2019 24.3 (17:10) 7.5 (00:00) 15.9 13.89 (05:00) 10 (05:10) 0 0 0 0 0
12-06-2019 19.4 (16:10) 4.9 (00:00) 12.1 11.39 (06:10) 7.78 (01:10) 0.2 0.2 0 0 0
11-06-2019 15.3 (01:40) 8.6 (00:00) 12 11.67 (01:50) 5.83 (23:20) 4.6 2.6 1.4 0.4 0.2
10-06-2019 23.9 (15:50) 13.1 (00:00) 18.5 12.22 (07:30) 8.61 (06:20) 0 0 0 0 0
09-06-2019 27.1 (16:40) 14.9 (00:00) 21 11.39 (06:50) 7.5 (07:20) 0 0 0 0 0
08-06-2019 25.2 (16:20) 6.6 (00:00) 15.9 14.72 (06:40) 10 (07:40) 0 0 0 0 0
07-06-2019 20.9 (16:10) 11.2 (00:00) 16 11.11 (13:20) 7.5 (23:50) 0.6 0 0.6 0 0
06-06-2019 21.2 (16:00) 7.3 (00:00) 14.3 11.94 (18:40) 8.06 (08:00) 0 0 0 0 0
05-06-2019 21.7 (00:00) 12.2 (00:00) 17 10.83 (16:30) 5.28 (10:00) 5.6 0 3.4 2.2 0
04-06-2019 29.2 (16:30) 13.5 (00:00) 21.4 13.06 (06:20) 9.72 (06:20) 0 0 0 0 0
03-06-2019 29.4 (16:20) 15.5 (00:00) 22.4 13.61 (08:10) 10 (07:40) 0 0 0 0 0
02-06-2019 30.3 (15:40) 12.3 (00:00) 21.3 11.67 (04:40) 8.89 (07:50) 0 0 0 0 0
01-06-2019 28.2 (16:40) 11.3 (00:00) 19.8 12.22 (07:40) 9.17 (07:30) 0 0 0 0 0
31-05-2019 26.4 (16:10) 8.8 (00:00) 17.6 12.78 (07:30) 8.89 (07:20) 0 0 0 0 0
30-05-2019 25.8 (16:40) 8.5 (00:00) 17.1 10.56 (07:40) 6.67 (07:30) 0 0 0 0 0
29-05-2019 19.9 (16:20) 9.6 (00:00) 14.8 15 (19:40) 6.67 (03:40) 0 0 0 0 0
28-05-2019 21.4 (14:50) 9.6 (00:00) 15.5 16.39 (22:20) 8.61 (22:20) 0 0 0 0 0
27-05-2019 23.3 (18:10) 7.9 (00:00) 15.6 11.11 (05:50) 8.61 (05:50) 0 0 0 0 0
26-05-2019 21.5 (12:50) 9.7 (00:00) 15.6 16.11 (17:50) 7.5 (07:40) 0 0 0 0 0

Gráficas

Temp. máximas Temp. mínimas Temp. medias Precipitaciones Rachas de viento máximas Velocidades máximas media en intervalos de 10 minutos

Datos horarios

Fecha y hora oficial Temperatura (ºC) Velocidad del viento (km/h) Dirección del viento Racha (km/h) Dirección de racha Precipitación (mm) Presión (hPa) Tendencia (hPa) Humedad (%)
2019-06-24 23:00:00 24.3 9 Noroeste 16 Sudoeste 0 -- -- 41
2019-06-24 22:00:00 26.7 9 Sudoeste 26 Sur 0 -- -- 33
2019-06-24 21:00:00 28.1 14 Sudoeste 32 Sur 0 -- -- 31
2019-06-24 20:00:00 29 15 Sur 26 Sur 0 -- -- 28
2019-06-24 19:00:00 30.4 18 Sudoeste 32 Sudoeste 0 -- -- 26
2019-06-24 18:00:00 30.9 12 Sur 35 Sur 0 -- -- 25
2019-06-24 17:00:00 31 11 Nordeste 44 Sur 0 -- -- 23
2019-06-24 16:00:00 31.2 17 Sur 45 Sur 0 -- -- 21
2019-06-24 15:00:00 32.3 14 Sur 35 Sur 0 -- -- 18
2019-06-24 14:00:00 29.8 15 Sur 32 Sur 0 -- -- 22
2019-06-24 13:00:00 30.2 20 Sur 35 Sur 0 -- -- 24
2019-06-24 12:00:00 28.8 22 Sur 36 Sur 0 -- -- 29
2019-06-24 11:00:00 24.3 12 Noroeste 28 Noroeste 0 -- -- 47
2019-06-24 10:00:00 21.3 21 Noroeste 37 Noroeste 0 -- -- 54
2019-06-24 09:00:00 18.7 30 Noroeste 43 Noroeste 0 -- -- 62
2019-06-24 08:00:00 16.5 34 Noroeste 49 Noroeste 0 -- -- 69
2019-06-24 07:00:00 16.3 34 Noroeste 46 Noroeste 0 -- -- 72
2019-06-24 06:00:00 17.3 31 Noroeste 45 Noroeste 0 -- -- 69
2019-06-24 05:00:00 17.7 19 Noroeste 33 Noroeste 0 -- -- 69
2019-06-24 04:00:00 18.4 20 Noroeste 28 Noroeste 0 -- -- 67
2019-06-24 03:00:00 19.4 18 Noroeste 32 Noroeste 0 -- -- 63
2019-06-24 02:00:00 20.6 23 Noroeste 32 Noroeste 0 -- -- 60
2019-06-24 01:00:00 21.7 19 Noroeste 31 Noroeste 0 -- -- 57
2019-06-24 00:00:00 23 14 Noroeste 22 Noroeste 0 -- -- 52
2019-06-23 23:00:00 25.2 9 Oeste 17 Noroeste 0 -- -- 46
2019-06-23 22:00:00 27.5 9 Sudeste 19 Nordeste 0 -- -- 38
2019-06-23 21:00:00 29.3 0 Calma 19 Sudoeste 0 -- -- 34
2019-06-23 20:00:00 30.1 8 Sur 15 Sur 0 -- -- 31
2019-06-23 19:00:00 30.9 6 Sur 12 Sudoeste 0 -- -- 30
2019-06-23 18:00:00 30.7 5 Este 24 Sur 0 -- -- 32
2019-06-23 17:00:00 31.4 6 Sudoeste 24 Sur 0 -- -- 31
2019-06-23 16:00:00 30.5 6 Norte 26 Sur 0 -- -- 33
2019-06-23 15:00:00 30.9 8 Sur 21 Sudoeste 0 -- -- 34
2019-06-23 14:00:00 31.3 10 Sur 22 Sudeste 0 -- -- 33
2019-06-23 13:00:00 29 10 Sur 17 Sur 0 -- -- 36
2019-06-23 12:00:00 28.2 7 Sur 13 Sur 0 -- -- 36
2019-06-23 11:00:00 22.9 6 Norte 25 Noroeste 0 -- -- 45
2019-06-23 10:00:00 19 17 Noroeste 38 Noroeste 0 -- -- 59
2019-06-23 09:00:00 15.9 27 Noroeste 44 Noroeste 0 -- -- 69
2019-06-23 08:00:00 14.6 34 Noroeste 46 Noroeste 0 -- -- 74
2019-06-23 07:00:00 14.6 34 Noroeste 50 Noroeste 0 -- -- 72
2019-06-23 06:00:00 14.6 35 Noroeste 50 Noroeste 0 -- -- 73
2019-06-23 05:00:00 15.4 32 Noroeste 45 Noroeste 0 -- -- 69
2019-06-23 04:00:00 15.6 35 Noroeste 47 Noroeste 0 -- -- 70
2019-06-23 03:00:00 16.2 33 Noroeste 45 Noroeste 0 -- -- 68
2019-06-23 02:00:00 17.1 31 Noroeste 42 Norte 0 -- -- 65
2019-06-23 01:00:00 18.1 22 Noroeste 34 Noroeste 0 -- -- 62
2019-06-23 00:00:00 19.2 20 Noroeste 29 Noroeste 0 -- -- 58
2019-06-22 23:00:00 20.6 13 Noroeste 24 Noroeste 0 -- -- 53
2019-06-22 22:00:00 22.5 13 Noroeste 19 Noroeste 0 -- -- 47
2019-06-22 21:00:00 24.7 2 Sur 15 Sudoeste 0 -- -- 37
2019-06-22 20:00:00 25.6 12 Sur 20 Sudoeste 0 -- -- 32
2019-06-22 19:00:00 27.3 9 Sur 28 Sudoeste 0 -- -- 33
2019-06-22 18:00:00 27.4 15 Sur 26 Sudoeste 0 -- -- 32
2019-06-22 17:00:00 27.6 15 Sur 33 Sur 0 -- -- 33
2019-06-22 16:00:00 27.5 10 Sur 24 Sur 0 -- -- 37
2019-06-22 15:00:00 27.4 13 Sur 27 Sudoeste 0 -- -- 36
2019-06-22 14:00:00 26.4 14 Sur 33 Sudoeste 0 -- -- 34
2019-06-22 13:00:00 24.9 18 Sur 31 Sur 0 -- -- 39
2019-06-22 12:00:00 24.3 7 Sur 13 Noroeste 0 -- -- 45
2019-06-22 11:00:00 19.2 6 Noroeste 23 Noroeste 0 -- -- 64
2019-06-22 10:00:00 15.8 17 Noroeste 37 Noroeste 0 -- -- 75
2019-06-22 09:00:00 13.1 29 Noroeste 42 Noroeste 0 -- -- 84
2019-06-22 08:00:00 11.7 30 Noroeste 42 Noroeste 0 -- -- 89
2019-06-22 07:00:00 11.8 30 Noroeste 44 Noroeste 0 -- -- 88
2019-06-22 06:00:00 12.1 30 Noroeste 44 Noroeste 0 -- -- 88
2019-06-22 05:00:00 12.4 30 Noroeste 44 Noroeste 0 -- -- 88
2019-06-22 04:00:00 12.9 30 Noroeste 41 Noroeste 0 -- -- 86
2019-06-22 03:00:00 13.2 31 Noroeste 42 Noroeste 0 -- -- 86
2019-06-22 02:00:00 13.7 29 Noroeste 41 Noroeste 0 -- -- 85
2019-06-22 01:00:00 14 26 Noroeste 40 Noroeste 0 -- -- 84
2019-06-22 00:00:00 14.1 30 Noroeste 39 Noroeste 0 -- -- 84
2019-06-21 23:00:00 14.5 26 Noroeste 36 Noroeste 0 -- -- 82
2019-06-21 22:00:00 15.3 22 Noroeste 32 Noroeste 0 -- -- 79
2019-06-21 21:00:00 17.3 14 Nordeste 36 Este 0.8 -- -- 68
2019-06-21 20:00:00 19.1 18 Noroeste 37 Noroeste 0 -- -- 52
2019-06-21 19:00:00 20.1 17 Noroeste 31 Noroeste 0 -- -- 52
2019-06-21 18:00:00 21.6 9 Sudoeste 26 Sur 0 -- -- 61
2019-06-21 17:00:00 21.9 10 Sur 23 Sur 0 -- -- 57
2019-06-21 16:00:00 22 17 Sur 25 Sur 0 -- -- 54
2019-06-21 15:00:00 23.4 13 Sur 24 Sudoeste 0 -- -- 50
2019-06-21 14:00:00 23.6 10 Sur 19 Sur 0 -- -- 49
2019-06-21 13:00:00 21.8 6 Sudeste 12 Sudeste 0 -- -- 59
2019-06-21 12:00:00 19.1 6 Sur 13 Sur 0 -- -- 71
2019-06-21 11:00:00 18.6 3 Norte 19 Noroeste 0 -- -- 73
2019-06-21 10:00:00 17 5 Noroeste 21 Noroeste 0 -- -- 76
2019-06-21 09:00:00 16 11 Noroeste 24 Noroeste 0 -- -- 79
2019-06-21 08:00:00 15.1 16 Noroeste 28 Noroeste 0 -- -- 84
2019-06-21 07:00:00 15.1 18 Noroeste 29 Noroeste 0 -- -- 83
2019-06-21 06:00:00 14.7 17 Noroeste 32 Noroeste 0 -- -- 86
2019-06-21 05:00:00 15 23 Noroeste 32 Noroeste 0 -- -- 84
2019-06-21 04:00:00 15.5 17 Noroeste 31 Noroeste 0 -- -- 81
2019-06-21 03:00:00 15.7 22 Noroeste 35 Noroeste 0 -- -- 81
2019-06-21 02:00:00 15.9 18 Noroeste 35 Noroeste 0 -- -- 81
2019-06-21 01:00:00 15.8 22 Noroeste 32 Noroeste 0 -- -- 81
2019-06-21 00:00:00 16.3 18 Noroeste 29 Noroeste 0 -- -- 81
2019-06-20 23:00:00 16.7 13 Noroeste 26 Norte 0 -- -- 81
2019-06-20 22:00:00 17.3 17 Norte 36 Noroeste 0 -- -- 75
2019-06-20 21:00:00 16.2 8 Este 41 Sur 0.8 -- -- 87
2019-06-20 20:00:00 18.3 21 Sur 43 Sudoeste 2.2 -- -- 75
2019-06-20 19:00:00 21.9 20 Noroeste 40 Noroeste 0 -- -- 56
2019-06-20 18:00:00 26.1 12 Sur 26 Sur 0 -- -- 40
2019-06-20 17:00:00 26.1 17 Sur 29 Sudoeste 0 -- -- 43
2019-06-20 16:00:00 27 14 Sur 26 Sudoeste 0 -- -- 42
2019-06-20 15:00:00 26.6 8 Sur 29 Sur 0 -- -- 42
2019-06-20 14:00:00 26 11 Sudoeste 24 Sudoeste 0 -- -- 42
2019-06-20 13:00:00 24.8 16 Sur 27 Sur 0 -- -- 45
2019-06-20 12:00:00 23.4 8 Sudoeste 19 Sur 0 -- -- 49
2019-06-20 11:00:00 22.8 3 Nordeste 16 Noroeste 0 -- -- 52
2019-06-20 10:00:00 19.1 11 Noroeste 31 Noroeste 0 -- -- 57
2019-06-20 09:00:00 16.9 25 Noroeste 34 Noroeste 0 -- -- 62
2019-06-20 08:00:00 16 26 Noroeste 35 Noroeste 0 -- -- 65
2019-06-20 07:00:00 15.3 23 Noroeste 35 Noroeste 0 -- -- 68
2019-06-20 06:00:00 15.7 28 Noroeste 45 Noroeste 0 -- -- 65
2019-06-20 05:00:00 15.9 31 Noroeste 41 Noroeste 0 -- -- 64
2019-06-20 04:00:00 16.4 28 Noroeste 37 Noroeste 0 -- -- 61
2019-06-20 03:00:00 17.1 17 Noroeste 36 Noroeste 0 -- -- 58
2019-06-20 02:00:00 17.5 30 Noroeste 37 Noroeste 0 -- -- 57
2019-06-20 01:00:00 18.8 23 Noroeste 39 Noroeste 0 -- -- 51
2019-06-20 00:00:00 19.7 18 Noroeste 30 Noroeste 0 -- -- 50
2019-06-19 23:00:00 20.7 21 Noroeste 30 Noroeste 0 -- -- 47
2019-06-19 22:00:00 22.7 10 Noroeste 15 Noroeste 0 -- -- 41
2019-06-19 21:00:00 24.9 0 Calma 8 Oeste 0 -- -- 34
2019-06-19 20:00:00 25.7 4 Sudeste 15 Sudeste 0 -- -- 31
2019-06-19 19:00:00 27.4 9 Sudoeste 26 Sur 0 -- -- 29
2019-06-19 18:00:00 27.8 13 Sur 25 Sudoeste 0 -- -- 30
2019-06-19 17:00:00 28.1 12 Sur 32 Sur 0 -- -- 30
2019-06-19 16:00:00 27.5 18 Sur 35 Sur 0 -- -- 32
2019-06-19 15:00:00 27.9 13 Sur -- -- -- -- -- 27
2019-06-19 14:00:00 28.1 15 Sur 29 Sur 0 -- -- 25
2019-06-19 13:00:00 28.1 12 Sur 19 Sur 0 -- -- 26
2019-06-19 12:00:00 25.6 12 Sur 18 Sur 0 -- -- 28
2019-06-19 11:00:00 25 6 Sudeste 14 Norte 0 -- -- 32
2019-06-19 10:00:00 18.6 13 Noroeste 29 Noroeste 0 -- -- 45
2019-06-19 09:00:00 15.1 19 Noroeste 42 Noroeste 0 -- -- 54
2019-06-19 08:00:00 13 29 Noroeste 45 Noroeste 0 -- -- 59
2019-06-19 07:00:00 12.9 33 Noroeste -- -- -- -- -- 59
2019-06-19 06:00:00 -- -- -- -- -- -- -- -- --
2019-06-19 05:00:00 -- -- -- -- -- -- -- -- --
2019-06-19 04:00:00 -- -- -- -- -- -- -- -- --
2019-06-19 03:00:00 -- -- -- -- -- -- -- -- --
2019-06-19 02:00:00 -- -- -- -- -- -- -- -- --
2019-06-19 01:00:00 -- -- -- -- -- -- -- -- --
2019-06-19 00:00:00 -- -- -- -- -- -- -- -- --
2019-06-18 23:00:00 -- -- -- -- -- -- -- -- --
2019-06-18 22:00:00 -- -- -- -- -- -- -- -- --
2019-06-18 21:00:00 -- -- -- -- -- -- -- -- --
2019-06-18 20:00:00 -- -- -- -- -- -- -- -- --
2019-06-18 19:00:00 29.1 18 Sur 33 Sudoeste 0 -- -- 28
2019-06-18 18:00:00 29.7 14 Sur 35 Sur 0 -- -- 25
2019-06-18 17:00:00 29.1 15 Sur 26 Sur 0 -- -- 24
2019-06-18 16:00:00 29.9 17 Sur 37 Sudoeste 0 -- -- 26
2019-06-18 15:00:00 30.5 12 Sur 23 Sur 0 -- -- 25
2019-06-18 14:00:00 30 10 Sur 23 Sur 0 -- -- 26
2019-06-18 13:00:00 29.1 10 Sur 21 Sur 0 -- -- 30
2019-06-18 12:00:00 25.6 5 Norte 21 Norte 0 -- -- 38
2019-06-18 11:00:00 21.7 19 Noroeste 32 Noroeste 0 -- -- 49
2019-06-18 10:00:00 18.7 24 Noroeste 31 Noroeste 0 -- -- 56
2019-06-18 09:00:00 17.5 25 Noroeste 40 Noroeste 0 -- -- 58
2019-06-18 08:00:00 15.7 24 Noroeste 40 Noroeste 0 -- -- 65
2019-06-18 07:00:00 15.9 31 Noroeste 43 Noroeste 0 -- -- 63
2019-06-18 06:00:00 15.9 27 Noroeste 47 Noroeste 0 -- -- 63
2019-06-18 05:00:00 16.3 31 Noroeste 45 Noroeste 0 -- -- 61
2019-06-18 04:00:00 16.4 33 Noroeste 45 Noroeste 0 -- -- 61
2019-06-18 03:00:00 17 32 Noroeste 42 Noroeste 0 -- -- 58
2019-06-18 02:00:00 17.8 24 Noroeste 33 Noroeste 0 -- -- 55
2019-06-18 01:00:00 19.1 16 Noroeste 26 Noroeste 0 -- -- 51
2019-06-18 00:00:00 20.5 13 Noroeste 18 Noroeste 0 -- -- 47
2019-06-17 23:00:00 23.2 3 Sudoeste 27 Este 0 -- -- 42
2019-06-17 22:00:00 24.1 10 Este 22 Este 0 -- -- 38
2019-06-17 21:00:00 26.2 3 Nordeste 9 Nordeste 0 -- -- 28
2019-06-17 20:00:00 27.1 6 Este 24 Sur 0 -- -- 26
2019-06-17 19:00:00 29.1 13 Sur 24 Sudoeste 0 -- -- 25
2019-06-17 18:00:00 29.4 12 Sur 30 Sur 0 -- -- 24
2019-06-17 17:00:00 30.1 15 Sur 24 Sur 0 -- -- 25
2019-06-17 16:00:00 30 14 Sur 28 Sudoeste 0 -- -- 22
2019-06-17 15:00:00 29.3 11 Sur 30 Este 0 -- -- 23
2019-06-17 14:00:00 29.2 8 Sur 19 Sudeste 0 -- -- 25
2019-06-17 13:00:00 28.2 8 Sudeste 15 Sur 0 -- -- 29
2019-06-17 12:00:00 25.9 8 Sur 14 Sur 0 -- -- 32
2019-06-17 11:00:00 21.6 6 Noroeste 26 Noroeste 0 -- -- 42
2019-06-17 10:00:00 18.1 19 Noroeste 39 Noroeste 0 -- -- 50
2019-06-17 09:00:00 14.8 28 Noroeste 51 Noroeste 0 -- -- 61
2019-06-17 08:00:00 11.9 36 Noroeste 52 Noroeste 0 -- -- 71
2019-06-17 07:00:00 11.5 37 Noroeste 48 Noroeste 0 -- -- 73
2019-06-17 06:00:00 12.1 35 Noroeste 46 Noroeste 0 -- -- 71
2019-06-17 05:00:00 12.8 32 Noroeste 45 Noroeste 0 -- -- 68
2019-06-17 04:00:00 13.6 32 Noroeste 42 Noroeste 0 -- -- 65
2019-06-17 03:00:00 14.6 31 Noroeste 40 Noroeste 0 -- -- 61
2019-06-17 02:00:00 15.6 24 Noroeste 35 Noroeste 0 -- -- 58
2019-06-17 01:00:00 16.5 22 Noroeste 31 Noroeste 0 -- -- 56
2019-06-17 00:00:00 17.7 19 Noroeste 30 Noroeste 0 -- -- 51
2019-06-16 23:00:00 19.4 17 Noroeste 24 Noroeste 0 -- -- 46
2019-06-16 22:00:00 21.5 11 Noroeste 17 Noroeste 0 -- -- 38
2019-06-16 21:00:00 23.7 2 Nordeste 10 Sudeste 0 -- -- 32
2019-06-16 20:00:00 24.7 4 Sur 13 Sudoeste 0 -- -- 29
2019-06-16 19:00:00 25.9 9 Sur 22 Sur 0 -- -- 28
2019-06-16 18:00:00 26.5 13 Sur 23 Sur 0 -- -- 27
2019-06-16 17:00:00 26.8 8 Noroeste 25 Sur 0 -- -- 26
2019-06-16 16:00:00 26.7 7 Este 19 Sur 0 -- -- 29
2019-06-16 15:00:00 26 7 Sur 26 Sur 0 -- -- 30
2019-06-16 14:00:00 25.8 12 Sur 26 Sur 0 -- -- 33
2019-06-16 13:00:00 24.8 12 Sur 24 Nordeste 0 -- -- 35
2019-06-16 12:00:00 22.3 8 Sur 17 Sudoeste 0 -- -- 42
2019-06-16 11:00:00 20.9 9 Sudeste 16 Sudoeste 0 -- -- 43
2019-06-16 10:00:00 17.7 4 Nordeste 18 Norte 0 -- -- 54
2019-06-16 09:00:00 12.4 15 Noroeste 35 Noroeste 0 -- -- 65
2019-06-16 08:00:00 10 21 Noroeste 39 Noroeste 0 -- -- 74
2019-06-16 07:00:00 9.5 29 Noroeste 43 Noroeste 0 -- -- 77
2019-06-16 06:00:00 10.1 29 Noroeste 40 Noroeste 0 -- -- 76
2019-06-16 05:00:00 11 25 Noroeste 39 Noroeste 0 -- -- 72
2019-06-16 04:00:00 11.6 28 Noroeste 37 Noroeste 0 -- -- 69
2019-06-16 03:00:00 12.6 28 Noroeste 36 Noroeste 0 -- -- 66
2019-06-16 02:00:00 13.9 28 Noroeste 39 Noroeste 0 -- -- 60
2019-06-16 01:00:00 15.3 27 Noroeste 37 Noroeste 0 -- -- 56
2019-06-16 00:00:00 16.9 19 Noroeste 27 Noroeste 0 -- -- 50
2019-06-15 23:00:00 18.3 0 Calma 8 Sudeste 0 -- -- 39
2019-06-15 22:00:00 19.6 4 Sur 18 Nordeste 0 -- -- 37
2019-06-15 21:00:00 20.8 8 Sudeste 20 Sur 0 -- -- 35
2019-06-15 20:00:00 21.9 6 Nordeste 21 Sur 0 -- -- 34
2019-06-15 19:00:00 23.6 10 Sur 23 Sur 0 -- -- 34
2019-06-15 18:00:00 24.3 8 Sudeste 32 Sur 0 -- -- 34
2019-06-15 17:00:00 24.9 12 Sur 32 Sur 0 -- -- 34
2019-06-15 16:00:00 25.2 11 Sudeste 37 Sur 0 -- -- 34
2019-06-15 15:00:00 24.4 14 Sur 26 Sur 0 -- -- 35
2019-06-15 14:00:00 24.2 14 Sur 29 Sur 0 -- -- 35
2019-06-15 13:00:00 24.3 7 Sur 26 Nordeste 0 -- -- 34
2019-06-15 12:00:00 22.7 9 Sur 20 Sur 0 -- -- 38
2019-06-15 11:00:00 21.7 9 Sur 17 Sudoeste 0 -- -- 45
2019-06-15 10:00:00 19.9 6 Sur 12 Sudoeste 0 -- -- 49
2019-06-15 09:00:00 16.3 4 Nordeste 22 Noroeste 0 -- -- 72
2019-06-15 08:00:00 13.5 14 Noroeste 23 Noroeste 0 -- -- 79
2019-06-15 07:00:00 13 21 Noroeste 29 Noroeste 0 -- -- 81
2019-06-15 06:00:00 13.5 19 Noroeste 27 Noroeste 0 -- -- 79
2019-06-15 05:00:00 14.1 19 Noroeste 29 Noroeste 0 -- -- 75
2019-06-15 04:00:00 14.4 24 Noroeste 32 Noroeste 0 -- -- 72
2019-06-15 03:00:00 14.1 13 Noroeste 40 Noroeste 0 -- -- 73
2019-06-15 02:00:00 14.5 26 Noroeste 39 Noroeste 0 -- -- 72
2019-06-15 01:00:00 15.5 26 Noroeste 37 Noroeste 0 -- -- 68
2019-06-15 00:00:00 16.8 20 Noroeste 32 Noroeste 0 -- -- 64
2019-06-14 23:00:00 18.1 19 Noroeste 25 Noroeste 0 -- -- 61
2019-06-14 22:00:00 19.8 14 Noroeste 21 Noroeste 0 -- -- 53
2019-06-14 21:00:00 21.6 2 Sudoeste 6 Noroeste 0 -- -- 48
2019-06-14 20:00:00 22.4 4 Nordeste 22 Sur 0 -- -- 46
2019-06-14 19:00:00 24.2 8 Sur 21 Sur 0 -- -- 42
2019-06-14 18:00:00 24 5 Este 16 Sur 0 -- -- 45
2019-06-14 17:00:00 23.6 4 Sudoeste 19 Sur 0 -- -- 45
2019-06-14 16:00:00 21.8 4 Sur 33 Nordeste 0 -- -- 53
2019-06-14 15:00:00 20.6 13 Sur 37 Sur 0 -- -- 58
2019-06-14 14:00:00 25.3 15 Sur 25 Sudeste 0 -- -- 41
2019-06-14 13:00:00 23.6 5 Sudeste 19 Sur 0 -- -- 45
2019-06-14 12:00:00 22.7 6 Nordeste 15 Sudoeste 0 -- -- 44
2019-06-14 11:00:00 21.2 4 Sur 18 Noroeste 0 -- -- 49
2019-06-14 10:00:00 16.4 6 Noroeste 21 Noroeste 0 -- -- 60
2019-06-14 09:00:00 14.5 14 Noroeste 42 Noroeste 0 -- -- 64
2019-06-14 08:00:00 13.2 25 Noroeste 37 Noroeste 0 -- -- 68
2019-06-14 07:00:00 13.3 26 Noroeste 56 Noroeste 0 -- -- 66
2019-06-14 06:00:00 13.4 35 Noroeste 52 Noroeste 0 -- -- 65
2019-06-14 05:00:00 13.4 31 Noroeste 54 Noroeste 0 -- -- 64
2019-06-14 04:00:00 13.1 33 Noroeste 45 Noroeste 0 -- -- 67
2019-06-14 03:00:00 13.5 28 Noroeste 41 Noroeste 0 -- -- 66
2019-06-14 02:00:00 14.4 27 Noroeste 39 Noroeste 0 -- -- 62
2019-06-14 01:00:00 15.1 18 Noroeste 25 Noroeste 0 -- -- 62
2019-06-14 00:00:00 16.5 8 Noroeste 15 Noroeste 0 -- -- 56
2019-06-13 23:00:00 18 3 Sur 10 Sur 0 -- -- 49
2019-06-13 22:00:00 19.6 2 Sudeste 8 Sudoeste 0 -- -- 45
2019-06-13 21:00:00 20.8 2 Este 27 Sur 0 -- -- 41
2019-06-13 20:00:00 21.6 18 Sudoeste 40 Sur 0 -- -- 37
2019-06-13 19:00:00 23 15 Sur 31 Sudoeste 0 -- -- 33
2019-06-13 18:00:00 24.2 5 Oeste 26 Sudoeste 0 -- -- 35
2019-06-13 17:00:00 24.2 13 Sur 29 Sur 0 -- -- 36
2019-06-13 16:00:00 23.4 13 Sur 25 Sur 0 -- -- 36
2019-06-13 15:00:00 22.7 5 Sudoeste 30 Sur 0 -- -- 38
2019-06-13 14:00:00 22.8 10 Sudeste 24 Sudoeste 0 -- -- 35
2019-06-13 13:00:00 21.5 9 Sur 30 Sudoeste 0 -- -- 40
2019-06-13 12:00:00 19.4 14 Sur 31 Sudoeste 0 -- -- 40
2019-06-13 11:00:00 18.6 6 Sudeste 15 Noroeste 0 -- -- 38
2019-06-13 10:00:00 13.2 12 Noroeste 34 Noroeste 0 -- -- 57
2019-06-13 09:00:00 10.2 22 Noroeste 39 Noroeste 0 -- -- 66
2019-06-13 08:00:00 8.3 26 Noroeste 42 Noroeste 0 -- -- 72
2019-06-13 07:00:00 7.8 30 Noroeste 45 Noroeste 0 -- -- 74
2019-06-13 06:00:00 7.7 31 Noroeste 50 Noroeste 0 -- -- 74
2019-06-13 05:00:00 7.6 35 Noroeste 50 Noroeste 0 -- -- 74
2019-06-13 04:00:00 7.8 30 Noroeste 41 Noroeste 0 -- -- 73
2019-06-13 03:00:00 8.4 25 Noroeste 38 Noroeste 0 -- -- 72
2019-06-13 02:00:00 9.5 26 Noroeste 41 Noroeste 0 -- -- 65
2019-06-13 01:00:00 10.3 29 Noroeste 40 Noroeste 0 -- -- 62
2019-06-13 00:00:00 11.3 24 Noroeste 32 Noroeste 0 -- -- 59
2019-06-12 23:00:00 12.9 15 Noroeste 31 Noroeste 0 -- -- 52
2019-06-12 22:00:00 14.7 13 Noroeste 20 Noroeste 0 -- -- 43
2019-06-12 21:00:00 16.3 0 Calma 5 Oeste 0 -- -- 35
2019-06-12 20:00:00 17.1 5 Oeste 11 Este 0 -- -- 31
2019-06-12 19:00:00 18.7 5 Sur 25 Sudoeste 0 -- -- 29
2019-06-12 18:00:00 19.1 10 Sur 36 Sur 0 -- -- 31
2019-06-12 17:00:00 19.1 11 Sur 33 Sur 0 -- -- 32
2019-06-12 16:00:00 18.8 11 Sudeste 31 Sur 0 -- -- 36
2019-06-12 15:00:00 18.9 12 Sudeste 28 Sudoeste 0 -- -- 34
2019-06-12 14:00:00 17.6 13 Sur 28 Sudoeste 0 -- -- 38
2019-06-12 13:00:00 17.4 16 Sur 36 Sudeste 0 -- -- 39
2019-06-12 12:00:00 15 10 Sur 23 Sur 0 -- -- 44
2019-06-12 11:00:00 13.7 9 Sur 15 Sur 0 -- -- 62
2019-06-12 10:00:00 11.4 5 Nordeste 25 Noroeste 0 -- -- 68
2019-06-12 09:00:00 7.2 21 Noroeste 38 Noroeste 0 -- -- 77
2019-06-12 08:00:00 4.9 28 Noroeste 38 Noroeste 0 -- -- 85
2019-06-12 07:00:00 4.9 21 Noroeste 41 Noroeste 0 -- -- 87
2019-06-12 06:00:00 5.1 24 Noroeste 37 Noroeste 0 -- -- 87
2019-06-12 05:00:00 5.5 24 Noroeste 37 Noroeste 0 -- -- 85
2019-06-12 04:00:00 5.8 23 Noroeste 37 Noroeste 0 -- -- 86
2019-06-12 03:00:00 6.3 26 Noroeste 38 Noroeste 0 -- -- 84
2019-06-12 02:00:00 7 21 Noroeste 39 Noroeste 0.2 -- -- 82
2019-06-12 01:00:00 7.6 21 Noroeste 33 Noroeste 0 -- -- 81
2019-06-12 00:00:00 8.6 21 Noroeste 32 Noroeste 0 -- -- 76
2019-06-11 23:00:00 9.9 15 Noroeste 25 Noroeste 0 -- -- 69
2019-06-11 22:00:00 10.6 9 Norte 17 Noroeste 0 -- -- 68
2019-06-11 21:00:00 11.8 8 Oeste 25 Noroeste 0 -- -- 64
2019-06-11 20:00:00 11.9 9 Este 23 Noroeste 0.2 -- -- 63
2019-06-11 19:00:00 12.4 15 Noroeste 37 Noroeste 0 -- -- 57
2019-06-11 18:00:00 11.6 12 Noroeste 35 Noroeste 0 -- -- 68
2019-06-11 17:00:00 13 6 Oeste 23 Sur 0 -- -- 71
2019-06-11 16:00:00 13.3 8 Sudeste 14 Nordeste 0.2 -- -- 74
2019-06-11 15:00:00 11.2 9 Nordeste 18 Sur 0 -- -- 83
2019-06-11 14:00:00 10.8 11 Sudoeste 23 Sudoeste 0 -- -- 87
2019-06-11 13:00:00 10.4 12 Sur 20 Sudoeste 0.2 -- -- 90
2019-06-11 12:00:00 9.9 6 Sur 16 Sur 0.8 -- -- 90
2019-06-11 11:00:00 9.9 4 Sudoeste 8 Sudoeste 0.2 -- -- 86
2019-06-11 10:00:00 10 3 Sur 8 Sudoeste 0.2 -- -- 87
2019-06-11 09:00:00 9.9 0 Calma 17 Noroeste 0 -- -- 81
2019-06-11 08:00:00 9.5 12 Noroeste 19 Noroeste 0 -- -- 81
2019-06-11 07:00:00 9.4 13 Noroeste 23 Noroeste 0.2 -- -- 81
2019-06-11 06:00:00 9.5 15 Noroeste 27 Noroeste 0.4 -- -- 78
2019-06-11 05:00:00 9.5 15 Norte 33 Noroeste 0.8 -- -- 79
2019-06-11 04:00:00 10.3 10 Norte 28 Noroeste 1 -- -- 78
2019-06-11 03:00:00 12 4 Noroeste 29 Sudoeste 0.4 -- -- 71
2019-06-11 02:00:00 14.3 15 Noroeste 42 Noroeste 0 -- -- 50
2019-06-11 01:00:00 15 6 Sudoeste 20 Noroeste 0 -- -- 43
2019-06-11 00:00:00 14.6 4 Sudeste 12 Sudoeste 0 -- -- 39
2019-06-10 23:00:00 16.4 2 Sudeste 13 Sudoeste 0 -- -- 31
2019-06-10 22:00:00 17.7 3 Sudeste 9 Este 0 -- -- 29
2019-06-10 21:00:00 18.9 5 Sur 24 Sudoeste 0 -- -- 23
2019-06-10 20:00:00 20.1 12 Sur 28 Sur 0 -- -- 26
2019-06-10 19:00:00 21.6 11 Sudeste 36 Sur 0 -- -- 31
2019-06-10 18:00:00 23.2 14 Sur 35 Sur 0 -- -- 30
2019-06-10 17:00:00 23.3 13 Sur 29 Sur 0 -- -- 36
2019-06-10 16:00:00 23.4 8 Noroeste 24 Sur 0 -- -- 33
2019-06-10 15:00:00 23.1 14 Sur 33 Sur 0 -- -- 42
2019-06-10 14:00:00 21 13 Sur 28 Sur 0 -- -- 51
2019-06-10 13:00:00 22.8 11 Sur 27 Sur 0 -- -- 43
2019-06-10 12:00:00 21.9 11 Sur 24 Sur 0 -- -- 44
2019-06-10 11:00:00 20.1 11 Sur 18 Sur 0 -- -- 48
2019-06-10 10:00:00 19.4 7 Sudeste 12 Sudeste 0 -- -- 55
2019-06-10 09:00:00 16.6 3 Norte 22 Oeste 0 -- -- 68
2019-06-10 08:00:00 13.7 15 Noroeste 44 Noroeste 0 -- -- 74
2019-06-10 07:00:00 13.5 4 Nordeste 41 Noroeste 0 -- -- 75
2019-06-10 06:00:00 13.7 28 Noroeste 37 Noroeste 0 -- -- 73
2019-06-10 05:00:00 14.4 26 Noroeste 37 Noroeste 0 -- -- 71
2019-06-10 04:00:00 15.3 24 Noroeste 34 Noroeste 0 -- -- 68
2019-06-10 03:00:00 16.4 21 Noroeste 28 Noroeste 0 -- -- 64
2019-06-10 02:00:00 17.6 16 Noroeste 27 Noroeste 0 -- -- 59
2019-06-10 01:00:00 18.8 18 Noroeste 25 Noroeste 0 -- -- 55
2019-06-10 00:00:00 19.2 18 Noroeste 23 Noroeste 0 -- -- 54
2019-06-09 23:00:00 20.6 9 Noroeste 23 Noroeste 0 -- -- 47
2019-06-09 22:00:00 22.2 2 Sudeste 8 Noroeste 0 -- -- 40
2019-06-09 21:00:00 23.8 5 Sur 16 Sudoeste 0 -- -- 36
2019-06-09 20:00:00 24.6 5 Sudoeste 16 Sudoeste 0 -- -- 32
2019-06-09 19:00:00 24.9 8 Sudeste 25 Sur 0 -- -- 33
2019-06-09 18:00:00 26.7 10 Sur 24 Sudoeste 0 -- -- 31
2019-06-09 17:00:00 27.1 10 Sur 26 Sudoeste 0 -- -- 30
2019-06-09 16:00:00 26.6 5 Sur 21 Sur 0 -- -- 30
2019-06-09 15:00:00 26.7 10 Este 18 Sur 0 -- -- 31
2019-06-09 14:00:00 25.6 8 Sur 21 Sur 0 -- -- 32
2019-06-09 13:00:00 25.3 8 Sur 21 Sur 0 -- -- 31
2019-06-09 12:00:00 24 9 Sur 17 Sur 0 -- -- 36
2019-06-09 11:00:00 20.1 5 Norte 23 Noroeste 0 -- -- 55
2019-06-09 10:00:00 17.8 13 Noroeste 32 Noroeste 0 -- -- 63
2019-06-09 09:00:00 15.5 18 Noroeste 39 Noroeste 0 -- -- 69
2019-06-09 08:00:00 15.2 23 Norte 41 Noroeste 0 -- -- 70
2019-06-09 07:00:00 15.3 25 Norte 41 Noroeste 0 -- -- 69
2019-06-09 06:00:00 15.6 22 Noroeste 36 Noroeste 0 -- -- 70
2019-06-09 05:00:00 15.5 20 Norte 36 Noroeste 0 -- -- 70
2019-06-09 04:00:00 16.1 21 Noroeste 33 Noroeste 0 -- -- 65
2019-06-09 03:00:00 16.4 18 Noroeste 32 Noroeste 0 -- -- 62
2019-06-09 02:00:00 16.4 20 Noroeste 28 Noroeste 0 -- -- 63
2019-06-09 01:00:00 16.5 6 Norte 13 Noroeste 0 -- -- 60
2019-06-09 00:00:00 17.3 4 Este 21 Sudoeste 0 -- -- 55
2019-06-08 23:00:00 18.7 15 Sudoeste 29 Sur 0 -- -- 51
2019-06-08 22:00:00 19.7 15 Sudoeste 26 Sudoeste 0 -- -- 50
2019-06-08 21:00:00 20.8 16 Sur 27 Sudoeste 0 -- -- 47
2019-06-08 20:00:00 22.3 9 Sur 23 Sudoeste 0 -- -- 38
2019-06-08 19:00:00 22.9 9 Sur 26 Sudoeste 0 -- -- 38
2019-06-08 18:00:00 23.8 17 Sur 28 Sur 0 -- -- 36
2019-06-08 17:00:00 25 13 Sur 23 Sur 0 -- -- 31
2019-06-08 16:00:00 24.7 9 Sudeste 20 Nordeste 0 -- -- 29
2019-06-08 15:00:00 23.9 9 Sur 25 Sudoeste 0 -- -- 28
2019-06-08 14:00:00 23.3 8 Sudeste 15 Sudeste 0 -- -- 31
2019-06-08 13:00:00 22.3 7 Sudeste 13 Este 0 -- -- 32
2019-06-08 12:00:00 19.9 5 Sur 15 Sur 0 -- -- 31
2019-06-08 11:00:00 18.7 5 Sur 12 Sudeste 0 -- -- 37
2019-06-08 10:00:00 12.8 10 Noroeste 30 Noroeste 0 -- -- 52
2019-06-08 09:00:00 9.4 23 Noroeste 42 Noroeste 0 -- -- 64
2019-06-08 08:00:00 7 35 Noroeste 51 Noroeste 0 -- -- 73
2019-06-08 07:00:00 6.9 31 Noroeste 53 Noroeste 0 -- -- 73
2019-06-08 06:00:00 6.9 31 Noroeste 48 Noroeste 0 -- -- 74
2019-06-08 05:00:00 7.4 30 Noroeste 43 Noroeste 0 -- -- 72
2019-06-08 04:00:00 8 31 Noroeste 44 Noroeste 0 -- -- 69
2019-06-08 03:00:00 8.8 32 Noroeste 42 Noroeste 0 -- -- 66
2019-06-08 02:00:00 9.8 28 Noroeste 42 Noroeste 0 -- -- 61
2019-06-08 01:00:00 10.9 27 Noroeste 39 Noroeste 0 -- -- 57
2019-06-08 00:00:00 12.4 26 Noroeste 33 Noroeste 0 -- -- 51
2019-06-07 23:00:00 14 17 Noroeste 29 Noroeste 0 -- -- 44
2019-06-07 22:00:00 15.8 15 Noroeste 25 Noroeste 0 -- -- 40
2019-06-07 21:00:00 17.6 9 Sudoeste 17 Sudoeste 0 -- -- 31
2019-06-07 20:00:00 18.1 6 Sudeste 26 Sur 0 -- -- 36
2019-06-07 19:00:00 19.4 9 Sur 27 Sur 0 -- -- 38
2019-06-07 18:00:00 20.3 9 Sur 29 Sur 0 -- -- 35
2019-06-07 17:00:00 20.5 16 Sur 30 Sur 0 -- -- 32
2019-06-07 16:00:00 20.6 7 Sudeste 27 Sur 0 -- -- 26
2019-06-07 15:00:00 19.5 9 Sudoeste 22 Sudoeste 0 -- -- 31
2019-06-07 14:00:00 19.8 12 Sur 40 Sur 0 -- -- 30
2019-06-07 13:00:00 18.3 13 Sur 31 Sudoeste 0 -- -- 47
2019-06-07 12:00:00 16.4 15 Sur 28 Sur 0 -- -- 60
2019-06-07 11:00:00 13.4 10 Sur 17 Nordeste 0.6 -- -- 83
2019-06-07 10:00:00 14.2 5 Sudeste 9 Sur 0 -- -- 69
2019-06-07 09:00:00 13.2 2 Este 15 Noroeste 0 -- -- 69
2019-06-07 08:00:00 11.9 10 Noroeste 27 Noroeste 0 -- -- 72
2019-06-07 07:00:00 11.2 13 Noroeste 23 Noroeste 0 -- -- 74
2019-06-07 06:00:00 11.4 14 Noroeste 22 Noroeste 0 -- -- 71
2019-06-07 05:00:00 12.1 15 Noroeste 19 Noroeste 0 -- -- 66
2019-06-07 04:00:00 12.5 13 Noroeste 21 Noroeste 0 -- -- 63
2019-06-07 03:00:00 12.8 10 Noroeste 23 Noroeste 0 -- -- 63
2019-06-07 02:00:00 13.6 14 Noroeste 28 Noroeste 0 -- -- 58
2019-06-07 01:00:00 13.8 14 Noroeste 22 Noroeste 0 -- -- 62
2019-06-07 00:00:00 15.2 6 Oeste 22 Sudoeste 0 -- -- 52
2019-06-06 23:00:00 15.8 4 Sudeste 21 Sudoeste 0 -- -- 51
2019-06-06 22:00:00 16.4 7 Sudoeste 26 Sudoeste 0 -- -- 48
2019-06-06 21:00:00 16.8 3 Oeste 35 Sur 0 -- -- 51
2019-06-06 20:00:00 17.5 19 Sur 36 Sudoeste 0 -- -- 53
2019-06-06 19:00:00 18.3 17 Sur 43 Sur 0 -- -- 51
2019-06-06 18:00:00 19.8 18 Sur 39 Sur 0 -- -- 45
2019-06-06 17:00:00 20 13 Sur 35 Sudoeste 0 -- -- 36
2019-06-06 16:00:00 21.2 14 Sur 36 Sur 0 -- -- 33
2019-06-06 15:00:00 20.6 17 Sur 34 Sur 0 -- -- 35
2019-06-06 14:00:00 20.1 14 Sur 31 Sur 0 -- -- 36
2019-06-06 13:00:00 20 13 Sur 28 Sur 0 -- -- 42
2019-06-06 12:00:00 18.3 12 Sur 23 Sudoeste 0 -- -- 43
2019-06-06 11:00:00 16 5 Sur 16 Noroeste 0 -- -- 46
2019-06-06 10:00:00 12 14 Noroeste 27 Noroeste 0 -- -- 67
2019-06-06 09:00:00 9.6 19 Noroeste 40 Noroeste 0 -- -- 73
2019-06-06 08:00:00 7.5 29 Noroeste 38 Noroeste 0 -- -- 82
2019-06-06 07:00:00 7.5 27 Noroeste 41 Noroeste 0 -- -- 82
2019-06-06 06:00:00 7.5 27 Noroeste 37 Noroeste 0 -- -- 83
2019-06-06 05:00:00 8 24 Noroeste 36 Noroeste 0 -- -- 81
2019-06-06 04:00:00 8.5 22 Noroeste 38 Noroeste 0 -- -- 79
2019-06-06 03:00:00 8.9 26 Noroeste 40 Noroeste 0 -- -- 76
2019-06-06 02:00:00 9.7 27 Noroeste 39 Noroeste 0 -- -- 73
2019-06-06 01:00:00 10.8 22 Noroeste 35 Noroeste 0 -- -- 66
2019-06-06 00:00:00 12.2 19 Noroeste 32 Noroeste 0 -- -- 57
2019-06-05 23:00:00 13.4 11 Noroeste 24 Noroeste 0 -- -- 52
2019-06-05 22:00:00 14.1 13 Noroeste 23 Noroeste 0 -- -- 48
2019-06-05 21:00:00 15.2 6 Oeste 21 Noroeste 0 -- -- 47
2019-06-05 20:00:00 16.1 8 Oeste 24 Noroeste 0 -- -- 48
2019-06-05 19:00:00 16.8 7 Noroeste 28 Noroeste 0 -- -- 52
2019-06-05 18:00:00 16.4 13 Noroeste 25 Noroeste 0 -- -- 57
2019-06-05 17:00:00 15.4 18 Noroeste 39 Noroeste 0 -- -- 58
2019-06-05 16:00:00 16.2 18 Sur 31 Sur 0 -- -- 66
2019-06-05 15:00:00 14.9 6 Este 11 Nordeste 0.2 -- -- 79
2019-06-05 14:00:00 14.5 5 Sudeste 19 Sur 1 -- -- 89
2019-06-05 13:00:00 13.5 10 Sur 34 Sur 1 -- -- 87
2019-06-05 12:00:00 14.8 8 Sudeste 27 Sur 3.4 -- -- 76
2019-06-05 11:00:00 17.7 15 Sur 27 Sur 0 -- -- 47
2019-06-05 10:00:00 18.3 19 Sudoeste 35 Sudoeste 0 -- -- 40
2019-06-05 09:00:00 17.6 5 Sur 14 Sur 0 -- -- 40
2019-06-05 08:00:00 16 3 Sur 16 Noroeste 0 -- -- 51
2019-06-05 07:00:00 15.6 13 Noroeste 21 Noroeste 0 -- -- 50
2019-06-05 06:00:00 16.2 10 Noroeste 28 Noroeste 0 -- -- 45
2019-06-05 05:00:00 17 15 Noroeste 23 Noroeste 0 -- -- 40
2019-06-05 04:00:00 17.9 10 Noroeste 16 Noroeste 0 -- -- 38
2019-06-05 03:00:00 18.6 6 Oeste 14 Noroeste 0 -- -- 39
2019-06-05 02:00:00 19.4 6 Noroeste 10 Noroeste 0 -- -- 42
2019-06-05 01:00:00 20.4 2 Nordeste 15 Sudoeste 0 -- -- 33
2019-06-05 00:00:00 21.7 9 Sudoeste 22 Sur 0 -- -- 30
2019-06-04 23:00:00 22.3 12 Oeste 31 Nordeste 0 -- -- 32
2019-06-04 22:00:00 23.1 12 Nordeste 30 Norte 0 -- -- 34
2019-06-04 21:00:00 24.4 8 Sudoeste 35 Sur 0 -- -- 34
2019-06-04 20:00:00 25.3 4 Este 39 Sur 0 -- -- 34
2019-06-04 19:00:00 27.1 8 Sudeste 43 Sudoeste 0 -- -- 31
2019-06-04 18:00:00 28 27 Sudoeste 37 Sudoeste 0 -- -- 29
2019-06-04 17:00:00 28.9 9 Sur 30 Sur 0 -- -- 28
2019-06-04 16:00:00 29.1 10 Sur 31 Sur 0 -- -- 27
2019-06-04 15:00:00 28.4 14 Sur 24 Sur 0 -- -- 28
2019-06-04 14:00:00 28 14 Sur 24 Sur 0 -- -- 30
2019-06-04 13:00:00 27.2 14 Sur 23 Sur 0 -- -- 30
2019-06-04 12:00:00 25.7 10 Sur 17 Sudoeste 0 -- -- 35
2019-06-04 11:00:00 22.9 3 Sudeste 22 Noroeste 0 -- -- 51
2019-06-04 10:00:00 18.5 15 Noroeste 33 Noroeste 0 -- -- 55
2019-06-04 09:00:00 16.4 24 Noroeste 40 Noroeste 0 -- -- 60
2019-06-04 08:00:00 14 30 Noroeste 42 Noroeste 0 -- -- 69
2019-06-04 07:00:00 13.5 33 Noroeste 47 Noroeste 0 -- -- 71
2019-06-04 06:00:00 13.9 28 Noroeste 44 Noroeste 0 -- -- 69
2019-06-04 05:00:00 14.4 26 Noroeste 44 Noroeste 0 -- -- 67
2019-06-04 04:00:00 15.3 28 Noroeste 42 Noroeste 0 -- -- 63
2019-06-04 03:00:00 16.1 27 Noroeste 39 Noroeste 0 -- -- 61
2019-06-04 02:00:00 16.8 27 Noroeste 37 Noroeste 0 -- -- 59
2019-06-04 01:00:00 18.4 26 Noroeste 37 Noroeste 0 -- -- 53
2019-06-04 00:00:00 19.4 23 Noroeste 33 Noroeste 0 -- -- 50
2019-06-03 23:00:00 21.2 18 Noroeste 24 Noroeste 0 -- -- 44
2019-06-03 22:00:00 22.8 9 Noroeste 18 Oeste 0 -- -- 40
2019-06-03 21:00:00 24.6 10 Sudoeste 22 Este 0 -- -- 34
2019-06-03 20:00:00 25.8 14 Nordeste 41 Sudoeste 0 -- -- 33
2019-06-03 19:00:00 27.6 17 Sur 26 Sur 0 -- -- 28
2019-06-03 18:00:00 28.6 12 Sur 26 Sudoeste 0 -- -- 28
2019-06-03 17:00:00 29.1 13 Sur 28 Sur 0 -- -- 32
2019-06-03 16:00:00 29.3 7 Sudeste 24 Sur 0 -- -- 33
2019-06-03 15:00:00 28.7 11 Sur 24 Sur 0 -- -- 33
2019-06-03 14:00:00 27.2 11 Sudoeste 22 Sur 0 -- -- 36
2019-06-03 13:00:00 26.3 10 Sur 18 Sur 0 -- -- 39
2019-06-03 12:00:00 25.4 4 Nordeste 12 Sudeste 0 -- -- 45
2019-06-03 11:00:00 23.5 7 Sur 13 Noroeste 0 -- -- 51
2019-06-03 10:00:00 20.2 9 Noroeste 41 Noroeste 0 -- -- 53
2019-06-03 09:00:00 18.2 25 Norte 49 Noroeste 0 -- -- 57
2019-06-03 08:00:00 16.8 31 Noroeste 47 Noroeste 0 -- -- 62
2019-06-03 07:00:00 16.1 30 Noroeste 42 Noroeste 0 -- -- 65
2019-06-03 06:00:00 15.6 28 Noroeste 42 Noroeste 0 -- -- 67
2019-06-03 05:00:00 16 30 Noroeste 40 Noroeste 0 -- -- 65
2019-06-03 04:00:00 16.4 22 Noroeste 36 Noroeste 0 -- -- 64
2019-06-03 03:00:00 17.1 24 Noroeste 35 Noroeste 0 -- -- 62
2019-06-03 02:00:00 17.8 19 Noroeste 29 Noroeste 0 -- -- 60
2019-06-03 01:00:00 18.9 18 Noroeste 31 Noroeste 0 -- -- 56
2019-06-03 00:00:00 20.3 15 Noroeste 29 Noroeste 0 -- -- 52
2019-06-02 23:00:00 22.2 17 Noroeste 23 Noroeste 0 -- -- 44
2019-06-02 22:00:00 23.8 10 Noroeste 14 Noroeste 0 -- -- 40
2019-06-02 21:00:00 26.1 3 Sur 15 Sudoeste 0 -- -- 32
2019-06-02 20:00:00 27.5 10 Sur 27 Sur 0 -- -- 29
2019-06-02 19:00:00 28.5 15 Sur 24 Sur 0 -- -- 28
2019-06-02 18:00:00 28.9 10 Sur 21 Sur 0 -- -- 25
2019-06-02 17:00:00 30 12 Sur 28 Sudoeste 0 -- -- 26
2019-06-02 16:00:00 30.1 10 Sur 29 Sudoeste 0 -- -- 25
2019-06-02 15:00:00 29.7 12 Sur 25 Sur 0 -- -- 25
2019-06-02 14:00:00 29.4 10 Sur 21 Sur 0 -- -- 30
2019-06-02 13:00:00 27.9 8 Sudeste 17 Sur 0 -- -- 37
2019-06-02 12:00:00 26.4 5 Sudeste 12 Sur 0 -- -- 43
2019-06-02 11:00:00 23.2 5 Sudeste 19 Noroeste 0 -- -- 49
2019-06-02 10:00:00 17.9 17 Noroeste 32 Noroeste 0 -- -- 59
2019-06-02 09:00:00 15.2 23 Noroeste 39 Noroeste 0 -- -- 68
2019-06-02 08:00:00 12.7 31 Noroeste 40 Noroeste 0 -- -- 77
2019-06-02 07:00:00 12.6 30 Noroeste 40 Noroeste 0 -- -- 78
2019-06-02 06:00:00 13.1 28 Noroeste 39 Noroeste 0 -- -- 76
2019-06-02 05:00:00 13.8 27 Noroeste 42 Noroeste 0 -- -- 74
2019-06-02 04:00:00 14.6 28 Noroeste 41 Noroeste 0 -- -- 70
2019-06-02 03:00:00 15.4 25 Noroeste 33 Noroeste 0 -- -- 67
2019-06-02 02:00:00 16.7 20 Noroeste 30 Noroeste 0 -- -- 63
2019-06-02 01:00:00 17.8 16 Noroeste 27 Noroeste 0 -- -- 60
2019-06-02 00:00:00 19.2 15 Noroeste 21 Noroeste 0 -- -- 55
2019-06-01 23:00:00 21.1 2 Sudoeste 7 Noroeste 0 -- -- 49
2019-06-01 22:00:00 22.8 3 Sudeste 16 Sudoeste 0 -- -- 41
2019-06-01 21:00:00 24.7 8 Sur 14 Sudeste 0 -- -- 37
2019-06-01 20:00:00 25.6 6 Nordeste 18 Sur 0 -- -- 37
2019-06-01 19:00:00 27.2 10 Sur 23 Sur 0 -- -- 33
2019-06-01 18:00:00 27.8 9 Sur 27 Sur 0 -- -- 34
2019-06-01 17:00:00 27.8 10 Sur 23 Sur 0 -- -- 33
2019-06-01 16:00:00 27.8 10 Sur 21 Sudoeste 0 -- -- 37
2019-06-01 15:00:00 27.5 12 Sur 25 Sur 0 -- -- 35
2019-06-01 14:00:00 26.8 7 Sudeste 21 Sudoeste 0 -- -- 35
2019-06-01 13:00:00 26 8 Sudeste 20 Sur 0 -- -- 40
2019-06-01 12:00:00 24.6 9 Sur 14 Sur 0 -- -- 43
2019-06-01 11:00:00 20.9 4 Norte 23 Noroeste 0 -- -- 52
2019-06-01 10:00:00 17.2 18 Noroeste 33 Noroeste 0 -- -- 59
2019-06-01 09:00:00 14.1 26 Noroeste 43 Noroeste 0 -- -- 69
2019-06-01 08:00:00 11.8 31 Noroeste 44 Noroeste 0 -- -- 77
2019-06-01 07:00:00 11.6 29 Noroeste 42 Noroeste 0 -- -- 79
2019-06-01 06:00:00 11.7 31 Noroeste 39 Noroeste 0 -- -- 78
2019-06-01 05:00:00 12.4 31 Noroeste 38 Noroeste 0 -- -- 76
2019-06-01 04:00:00 13.4 28 Noroeste 38 Noroeste 0 -- -- 72
2019-06-01 03:00:00 13.8 28 Noroeste 37 Noroeste 0 -- -- 70
2019-06-01 02:00:00 15 26 Noroeste 32 Noroeste 0 -- -- 66
2019-06-01 01:00:00 16.1 18 Noroeste 28 Noroeste 0 -- -- 62
2019-06-01 00:00:00 17.5 13 Noroeste 26 Noroeste 0 -- -- 57
2019-05-31 23:00:00 19.3 2 Oeste 13 Noroeste 0 -- -- 51
2019-05-31 22:00:00 20.9 0 Calma 15 Sudeste 0 -- -- 42
2019-05-31 21:00:00 22.8 3 Este 17 Sur 0 -- -- 37
2019-05-31 20:00:00 23.8 10 Sur 21 Sur 0 -- -- 37
2019-05-31 19:00:00 25.5 10 Sur 22 Sudoeste 0 -- -- 36
2019-05-31 18:00:00 26.1 12 Sur 26 Sur 0 -- -- 36
2019-05-31 17:00:00 26.3 15 Sur 27 Sudoeste 0 -- -- 36
2019-05-31 16:00:00 26.2 11 Sur 25 Sudoeste 0 -- -- 35
2019-05-31 15:00:00 26.2 10 Sur 19 Sur 0 -- -- 32
2019-05-31 14:00:00 24.8 8 Sur 22 Sur 0 -- -- 35
2019-05-31 13:00:00 24.1 12 Sur 19 Sur 0 -- -- 37
2019-05-31 12:00:00 22.9 8 Sur 15 Sudoeste 0 -- -- 39
2019-05-31 11:00:00 21.7 8 Sudeste 13 Noroeste 0 -- -- 44
2019-05-31 10:00:00 15.3 10 Noroeste 27 Noroeste 0 -- -- 50
2019-05-31 09:00:00 11.6 18 Noroeste 38 Noroeste 0 -- -- 62
2019-05-31 08:00:00 9.3 26 Noroeste 46 Noroeste 0 -- -- 67
2019-05-31 07:00:00 9 27 Noroeste 43 Noroeste 0 -- -- 70
2019-05-31 06:00:00 9.5 28 Noroeste 45 Noroeste 0 -- -- 68
2019-05-31 05:00:00 10.5 32 Noroeste 40 Noroeste 0 -- -- 65
2019-05-31 04:00:00 11.3 29 Noroeste 42 Noroeste 0 -- -- 64
2019-05-31 03:00:00 12.6 29 Noroeste 37 Noroeste 0 -- -- 59
2019-05-31 02:00:00 14.1 27 Noroeste 37 Noroeste 0 -- -- 53
2019-05-31 01:00:00 15.6 30 Noroeste 38 Noroeste 0 -- -- 48
2019-05-31 00:00:00 17.4 23 Noroeste 30 Noroeste 0 -- -- 45
2019-05-30 23:00:00 20 13 Noroeste 22 Noroeste 0 -- -- 36
2019-05-30 22:00:00 21.7 6 Norte 29 Norte 0 -- -- 29
2019-05-30 21:00:00 23.2 12 Noroeste 28 Noroeste 0 -- -- 25
2019-05-30 20:00:00 24 11 Noroeste 33 Noroeste 0 -- -- 23
2019-05-30 19:00:00 25.3 9 Noroeste 24 Noroeste 0 -- -- 24
2019-05-30 18:00:00 25.5 8 Sur 21 Sur 0 -- -- 35
2019-05-30 17:00:00 25.7 10 Sudeste 25 Sudoeste 0 -- -- 35
2019-05-30 16:00:00 25.3 12 Sur 25 Sur 0 -- -- 36
2019-05-30 15:00:00 24.9 9 Sur 20 Sudoeste 0 -- -- 37
2019-05-30 14:00:00 23.6 9 Sur 18 Sudoeste 0 -- -- 35
2019-05-30 13:00:00 22.5 7 Sur 15 Sur 0 -- -- 39
2019-05-30 12:00:00 21.6 9 Sur 15 Sur 0 -- -- 39
2019-05-30 11:00:00 19.4 7 Sur 13 Sur 0 -- -- 43
2019-05-30 10:00:00 14.7 7 Noroeste 19 Noroeste 0 -- -- 52
2019-05-30 09:00:00 11.5 13 Noroeste 32 Noroeste 0 -- -- 62
2019-05-30 08:00:00 8.8 21 Noroeste 38 Noroeste 0 -- -- 70
2019-05-30 07:00:00 8.7 19 Noroeste 33 Oeste 0 -- -- 73
2019-05-30 06:00:00 8.9 15 Noroeste 29 Noroeste 0 -- -- 72
2019-05-30 05:00:00 9.6 15 Noroeste 30 Noroeste 0 -- -- 69
2019-05-30 04:00:00 10.5 12 Noroeste 24 Noroeste 0 -- -- 64
2019-05-30 03:00:00 11.3 14 Noroeste 21 Noroeste 0 -- -- 61
2019-05-30 02:00:00 11.1 2 Noroeste 6 Noroeste 0 -- -- 56
2019-05-30 01:00:00 12.5 0 Calma 20 Noroeste 0 -- -- 51
2019-05-30 00:00:00 14.3 3 Nordeste 22 Noroeste 0 -- -- 45
2019-05-29 23:00:00 15.5 15 Noroeste 32 Noroeste 0 -- -- 41
2019-05-29 22:00:00 15.8 14 Noroeste 40 Noroeste 0 -- -- 39
2019-05-29 21:00:00 16.2 12 Noroeste 36 Noroeste 0 -- -- 37
2019-05-29 20:00:00 17 14 Noroeste 54 Noroeste 0 -- -- 36
2019-05-29 19:00:00 18.6 14 Oeste 44 Noroeste 0 -- -- 31
2019-05-29 18:00:00 19.5 20 Oeste 42 Noroeste 0 -- -- 28
2019-05-29 17:00:00 19.8 18 Oeste 40 Noroeste 0 -- -- 27
2019-05-29 16:00:00 19.8 12 Noroeste 43 Noroeste 0 -- -- 25
2019-05-29 15:00:00 19.5 12 Oeste 43 Noroeste 0 -- -- 23
2019-05-29 14:00:00 19.4 13 Oeste 30 Noroeste 0 -- -- 23
2019-05-29 13:00:00 18.7 8 Este 31 Noroeste 0 -- -- 24
2019-05-29 12:00:00 17.2 9 Norte 23 Nordeste 0 -- -- 29
2019-05-29 11:00:00 16.4 7 Norte 37 Noroeste 0 -- -- 31
2019-05-29 10:00:00 14.7 19 Noroeste 32 Noroeste 0 -- -- 34
2019-05-29 09:00:00 13.2 9 Norte 23 Noroeste 0 -- -- 42
2019-05-29 08:00:00 9.7 13 Noroeste 23 Noroeste 0 -- -- 55
2019-05-29 07:00:00 10.5 11 Noroeste 23 Noroeste 0 -- -- 49
2019-05-29 06:00:00 11.1 10 Norte 27 Noroeste 0 -- -- 46
2019-05-29 05:00:00 11.6 14 Norte 44 Noroeste 0 -- -- 44
2019-05-29 04:00:00 11.7 17 Noroeste 43 Noroeste 0 -- -- 44
2019-05-29 03:00:00 12.2 22 Noroeste 54 Norte 0 -- -- 42
2019-05-29 02:00:00 13.2 15 Noroeste 47 Noroeste 0 -- -- 38
2019-05-29 01:00:00 13.4 18 Norte 49 Noroeste 0 -- -- 37
2019-05-29 00:00:00 13.6 13 Nordeste 53 Noroeste 0 -- -- 35
2019-05-28 23:00:00 13.9 22 Noroeste 59 Este 0 -- -- 35
2019-05-28 22:00:00 14.7 13 Norte 52 Noroeste 0 -- -- 36
2019-05-28 21:00:00 16.1 14 Este 44 Noroeste 0 -- -- 33
2019-05-28 20:00:00 18 18 Norte 48 Noroeste 0 -- -- 30
2019-05-28 19:00:00 19.8 10 Oeste 29 Oeste 0 -- -- 29
2019-05-28 18:00:00 20.7 8 Sudoeste 18 Oeste 0 -- -- 32
2019-05-28 17:00:00 20.6 3 Sur 10 Sur 0 -- -- 40
2019-05-28 16:00:00 20.1 6 Este 19 Sudoeste 0 -- -- 43
2019-05-28 15:00:00 20.7 7 Sur 25 Sur 0 -- -- 44
2019-05-28 14:00:00 20.8 16 Sur 32 Sur 0 -- -- 43
2019-05-28 13:00:00 20.8 11 Sur 26 Sur 0 -- -- 48
2019-05-28 12:00:00 20.2 13 Sur 25 Sur 0 -- -- 52
2019-05-28 11:00:00 18.9 9 Sur 16 Sur 0 -- -- 56
2019-05-28 10:00:00 17 4 Este 17 Noroeste 0 -- -- 49
2019-05-28 09:00:00 13 10 Noroeste 26 Noroeste 0 -- -- 58
2019-05-28 08:00:00 10.1 18 Noroeste 34 Noroeste 0 -- -- 70
2019-05-28 07:00:00 9.7 22 Noroeste 35 Noroeste 0 -- -- 73
2019-05-28 06:00:00 9.9 25 Noroeste 37 Noroeste 0 -- -- 73
2019-05-28 05:00:00 10.7 26 Noroeste 37 Noroeste 0 -- -- 69
2019-05-28 04:00:00 11.5 28 Noroeste 40 Noroeste 0 -- -- 66
2019-05-28 03:00:00 12.9 27 Noroeste 35 Noroeste 0 -- -- 61
2019-05-28 02:00:00 14.5 19 Noroeste 33 Noroeste 0 -- -- 56
2019-05-28 01:00:00 15.6 15 Norte 28 Norte 0 -- -- 51
2019-05-28 00:00:00 16.6 13 Norte 26 Noroeste 0 -- -- 47
2019-05-27 23:00:00 17.3 11 Este 26 Sudeste 0 -- -- 45
2019-05-27 22:00:00 18.4 10 Noroeste 26 Este 0 -- -- 41
2019-05-27 21:00:00 19.7 11 Noroeste 26 Noroeste 0 -- -- 40
2019-05-27 20:00:00 20.6 10 Oeste 26 Oeste 0 -- -- 39
2019-05-27 19:00:00 22.1 13 Sudoeste 26 Sudoeste 0 -- -- 36
2019-05-27 18:00:00 23 11 Oeste 28 Oeste 0 -- -- 33
2019-05-27 17:00:00 22.5 5 Sur 16 Sur 0 -- -- 47
2019-05-27 16:00:00 22.5 7 Sur 21 Sudoeste 0 -- -- 50
2019-05-27 15:00:00 22 8 Sudoeste 27 Sur 0 -- -- 42
2019-05-27 14:00:00 22.3 13 Sur 24 Sur 0 -- -- 41
2019-05-27 13:00:00 21.7 8 Sur 17 Sur 0 -- -- 41
2019-05-27 12:00:00 20.4 8 Sudeste 14 Sur 0 -- -- 45
2019-05-27 11:00:00 17.8 9 Sur 13 Sur 0 -- -- 48
2019-05-27 10:00:00 14.4 4 Norte 26 Noroeste 0 -- -- 61
2019-05-27 09:00:00 10.7 20 Noroeste 33 Noroeste 0 -- -- 68
2019-05-27 08:00:00 8.3 21 Noroeste 38 Noroeste 0 -- -- 77
2019-05-27 07:00:00 8.2 26 Noroeste 40 Noroeste 0 -- -- 75
2019-05-27 06:00:00 8.4 28 Noroeste 40 Noroeste 0 -- -- 76
2019-05-27 05:00:00 9.1 28 Noroeste 40 Noroeste 0 -- -- 73
2019-05-27 04:00:00 10.1 25 Noroeste 34 Noroeste 0 -- -- 67
2019-05-27 03:00:00 10.8 25 Noroeste 34 Noroeste 0 -- -- 64
2019-05-27 02:00:00 11.9 19 Noroeste 37 Noroeste 0 -- -- 60
2019-05-27 01:00:00 13.4 19 Noroeste 32 Noroeste 0 -- -- 53
2019-05-27 00:00:00 14.5 16 Norte 24 Noroeste 0 -- -- 48
2019-05-26 23:00:00 15.6 14 Noroeste 28 Noroeste 0 -- -- 42
2019-05-26 22:00:00 16.8 9 Oeste 24 Noroeste 0 -- -- 37
2019-05-26 21:00:00 17.6 13 Noroeste 38 Noroeste 0 -- -- 35
2019-05-26 20:00:00 18.3 16 Noroeste 42 Noroeste 0 -- -- 34
2019-05-26 19:00:00 19.3 14 Noroeste 40 Norte 0 -- -- 33
2019-05-26 18:00:00 20.1 20 Noroeste 58 Norte 0 -- -- 32
2019-05-26 17:00:00 20.5 22 Noroeste 45 Noroeste 0 -- -- 32
2019-05-26 16:00:00 21.1 20 Noroeste 53 Noroeste 0 -- -- 32
2019-05-26 15:00:00 20.9 19 Noroeste 47 Norte 0 -- -- 32
2019-05-26 14:00:00 20.8 21 Noroeste 51 Noroeste 0 -- -- 33
2019-05-26 13:00:00 20.9 13 Sudoeste 26 Sur 0 -- -- 32
2019-05-26 12:00:00 19.8 10 Sudoeste 17 Sudoeste 0 -- -- 38
2019-05-26 11:00:00 19.2 4 Sudeste 10 Sudeste 0 -- -- 43
2019-05-26 10:00:00 16.3 4 Sudeste 20 Noroeste 0 -- -- 51
2019-05-26 09:00:00 12.4 15 Noroeste 31 Noroeste 0 -- -- 59
2019-05-26 08:00:00 10 25 Noroeste 37 Noroeste 0 -- -- 67
2019-05-26 07:00:00 10 24 Noroeste 36 Noroeste 0 -- -- 69
2019-05-26 06:00:00 10.7 20 Noroeste 36 Noroeste 0 -- -- 65
2019-05-26 05:00:00 11 20 Noroeste 33 Noroeste 0 -- -- 64
2019-05-26 04:00:00 11.5 22 Noroeste 31 Noroeste 0 -- -- 62
2019-05-26 03:00:00 12.1 19 Noroeste 32 Noroeste 0 -- -- 61
2019-05-26 02:00:00 13 18 Noroeste 31 Noroeste 0 -- -- 55
2019-05-26 01:00:00 14 13 Norte 32 Noroeste 0 -- -- 50
2019-05-26 00:00:00 15.4 9 Norte 33 Noroeste 0 -- -- 44